createdAt,value
2022-12-06T00:02:01.259Z,74.70
2022-12-06T00:04:29.122Z,74.17
2022-12-06T00:06:58.356Z,74.38
2022-12-06T00:09:27.736Z,74.26
2022-12-06T00:11:57.436Z,73.98
2022-12-06T00:14:26.485Z,74.38
2022-12-06T00:16:54.367Z,74.67
2022-12-06T00:19:23.693Z,74.70
2022-12-06T00:21:51.551Z,73.91
2022-12-06T00:24:21.506Z,72.88
2022-12-06T00:26:50.175Z,72.26
2022-12-06T00:29:21.389Z,71.85
2022-12-06T00:31:49.423Z,71.44
2022-12-06T00:34:17.522Z,71.10
2022-12-06T00:36:45.399Z,71.08
2022-12-06T00:39:14.304Z,70.83
2022-12-06T00:41:42.518Z,71.71
2022-12-06T00:44:10.526Z,73.34
2022-12-06T00:46:40.274Z,73.08
2022-12-06T00:49:09.449Z,72.50
2022-12-06T00:51:37.995Z,71.66
2022-12-06T00:54:06.224Z,71.10
2022-12-06T00:56:35.872Z,71.59
2022-12-06T00:59:03.807Z,71.71
2022-12-06T01:01:33.296Z,72.58
2022-12-06T01:04:04.704Z,73.45
2022-12-06T01:06:34.665Z,72.86
2022-12-06T01:09:05.048Z,72.98
2022-12-06T01:11:43.260Z,72.65
2022-12-06T01:14:11.036Z,71.92
2022-12-06T01:16:39.759Z,72.46
2022-12-06T01:19:09.248Z,73.28
2022-12-06T01:21:37.024Z,73.23
2022-12-06T01:24:05.191Z,72.63
2022-12-06T01:26:34.587Z,72.47
2022-12-06T01:29:02.644Z,72.11
2022-12-06T01:31:37.730Z,72.88
2022-12-06T01:34:13.928Z,73.36
2022-12-06T01:36:41.748Z,73.61
2022-12-06T01:39:10.650Z,73.40
2022-12-06T01:41:39.887Z,72.96
2022-12-06T01:44:08.651Z,74.67
2022-12-06T01:46:39.406Z,75.19
2022-12-06T01:49:14.407Z,74.52
2022-12-06T01:51:45.199Z,73.67
2022-12-06T01:54:15.211Z,72.90
2022-12-06T01:56:43.401Z,72.14
2022-12-06T01:59:11.711Z,72.34
2022-12-06T02:01:40.529Z,72.52
2022-12-06T02:04:10.066Z,72.15
2022-12-06T02:06:38.497Z,71.28
2022-12-06T02:09:08.300Z,71.73
2022-12-06T02:11:36.419Z,72.68
2022-12-06T02:14:06.243Z,72.57
2022-12-06T02:16:44.035Z,72.34
2022-12-06T02:19:31.259Z,72.29
2022-12-06T02:22:07.311Z,72.20
2022-12-06T02:24:50.083Z,73.32
2022-12-06T02:27:31.363Z,73.28
2022-12-06T02:30:08.845Z,72.65
2022-12-06T02:32:44.073Z,72.35
2022-12-06T02:35:16.398Z,72.65
2022-12-06T02:37:48.127Z,73.77
2022-12-06T02:40:19.147Z,74.31
2022-12-06T02:42:49.479Z,74.18
2022-12-06T02:45:20.419Z,73.77
2022-12-06T02:47:50.679Z,74.50
2022-12-06T02:50:21.315Z,74.11
2022-12-06T02:52:51.077Z,73.69
2022-12-06T02:55:19.412Z,73.30
2022-12-06T02:57:48.828Z,73.56
2022-12-06T03:00:36.036Z,73.43
2022-12-06T03:03:30.853Z,73.97
2022-12-06T03:06:23.363Z,74.03
2022-12-06T03:08:58.196Z,74.35
2022-12-06T03:11:27.554Z,73.95
2022-12-06T03:13:57.925Z,74.29
2022-12-06T03:16:28.927Z,74.38
2022-12-06T03:19:01.012Z,73.70
2022-12-06T03:21:31.732Z,72.34
2022-12-06T03:23:59.732Z,71.81
2022-12-06T03:26:29.303Z,71.68
2022-12-06T03:29:00.639Z,71.09
2022-12-06T03:31:30.867Z,70.85
2022-12-06T03:34:03.165Z,71.05
2022-12-06T03:36:32.475Z,70.16
2022-12-06T03:39:03.219Z,71.28
2022-12-06T03:41:33.278Z,71.79
2022-12-06T03:44:01.156Z,70.92
2022-12-06T03:46:32.437Z,70.76
2022-12-06T03:49:03.421Z,70.89
2022-12-06T03:51:33.732Z,70.72
2022-12-06T03:54:04.248Z,70.44
2022-12-06T03:56:32.461Z,70.47
2022-12-06T03:59:00.358Z,71.29
2022-12-06T04:01:28.303Z,71.29
2022-12-06T04:03:56.205Z,71.68
2022-12-06T04:06:25.444Z,71.24
2022-12-06T04:08:53.536Z,71.18
2022-12-06T04:11:21.741Z,71.43
2022-12-06T04:13:49.514Z,71.69
2022-12-06T04:16:35.055Z,71.05
2022-12-06T04:19:02.841Z,70.82
2022-12-06T04:21:49.461Z,71.73
2022-12-06T04:24:17.244Z,72.44
2022-12-06T04:26:44.963Z,72.06
2022-12-06T04:29:30.244Z,71.27
2022-12-06T04:32:15.443Z,70.99
2022-12-06T04:35:00.871Z,71.44
2022-12-06T04:37:47.504Z,71.36
2022-12-06T04:40:15.384Z,71.01
2022-12-06T04:43:00.440Z,70.81
2022-12-06T04:45:28.241Z,71.24
2022-12-06T04:47:56.117Z,71.08
2022-12-06T04:50:23.870Z,70.97
2022-12-06T04:52:53.033Z,70.70
2022-12-06T04:55:20.831Z,70.47
2022-12-06T04:57:48.614Z,70.17
2022-12-06T05:00:17.108Z,70.01
2022-12-06T05:02:44.895Z,70.20
2022-12-06T05:05:12.833Z,70.70
2022-12-06T05:07:40.662Z,71.30
2022-12-06T05:10:10.606Z,71.26
2022-12-06T05:12:38.368Z,70.87
2022-12-06T05:15:06.679Z,70.64
2022-12-06T05:17:34.403Z,70.31
2022-12-06T05:20:02.447Z,70.93
2022-12-06T05:22:33.681Z,70.89
2022-12-06T05:25:01.475Z,70.63
2022-12-06T05:27:35.671Z,71.16
2022-12-06T05:30:04.577Z,71.41
2022-12-06T05:32:32.434Z,71.71
2022-12-06T05:35:00.257Z,73.12
2022-12-06T05:37:28.009Z,74.27
2022-12-06T05:39:55.889Z,73.75
2022-12-06T05:42:23.701Z,73.36
2022-12-06T05:44:53.016Z,72.71
2022-12-06T05:47:20.865Z,72.62
2022-12-06T05:49:48.621Z,72.83
2022-12-06T05:52:16.506Z,72.41
2022-12-06T05:54:44.287Z,71.70
2022-12-06T05:57:12.124Z,71.41
2022-12-06T05:59:39.902Z,71.27
2022-12-06T06:02:09.613Z,71.24
2022-12-06T06:04:37.497Z,70.89
2022-12-06T06:07:05.280Z,70.96
2022-12-06T06:09:33.092Z,71.22
2022-12-06T06:12:00.830Z,71.31
2022-12-06T06:14:28.606Z,70.78
2022-12-06T06:16:56.534Z,70.76
2022-12-06T06:19:26.028Z,70.29
2022-12-06T06:21:53.827Z,70.42
2022-12-06T06:24:21.825Z,71.11
2022-12-06T06:26:56.559Z,71.00
2022-12-06T06:29:25.187Z,71.77
2022-12-06T06:31:53.038Z,71.74
2022-12-06T06:34:20.959Z,71.10
2022-12-06T06:36:50.116Z,70.78
2022-12-06T06:39:18.355Z,70.98
2022-12-06T06:41:46.610Z,71.81
2022-12-06T06:44:14.985Z,71.34
2022-12-06T06:46:42.728Z,70.95
2022-12-06T06:49:10.540Z,71.30
2022-12-06T06:51:38.326Z,70.89
2022-12-06T06:54:07.580Z,70.69
2022-12-06T06:56:35.398Z,70.69
2022-12-06T06:59:03.195Z,70.43
2022-12-06T07:01:31.105Z,70.37
2022-12-06T07:03:59.028Z,70.45
2022-12-06T07:06:26.879Z,70.49
2022-12-06T07:08:54.640Z,70.55
2022-12-06T07:11:24.308Z,70.36
2022-12-06T07:13:52.906Z,70.09
2022-12-06T07:16:21.206Z,70.10
2022-12-06T07:18:49.231Z,69.72
2022-12-06T07:21:17.852Z,69.85
2022-12-06T07:23:45.933Z,69.67
2022-12-06T07:26:15.665Z,70.46
2022-12-06T07:28:46.012Z,70.77
2022-12-06T07:31:15.510Z,70.37
2022-12-06T07:33:44.264Z,70.15
2022-12-06T07:36:13.808Z,70.24
2022-12-06T07:38:42.555Z,70.18
2022-12-06T07:41:26.200Z,69.87
2022-12-06T07:44:15.165Z,69.52
2022-12-06T07:46:43.403Z,70.06
2022-12-06T07:49:11.411Z,70.41
2022-12-06T07:51:40.090Z,71.12
2022-12-06T07:54:07.973Z,71.89
2022-12-06T07:56:35.790Z,72.79
2022-12-06T07:59:05.004Z,73.14
2022-12-06T08:01:33.195Z,72.78
2022-12-06T08:04:01.280Z,72.50
2022-12-06T08:06:29.242Z,72.76
2022-12-06T08:08:56.987Z,72.58
2022-12-06T08:11:25.021Z,72.67
2022-12-06T08:13:52.805Z,71.90
2022-12-06T08:16:21.983Z,71.42
2022-12-06T08:18:49.912Z,72.00
2022-12-06T08:21:18.628Z,72.88
2022-12-06T08:23:46.417Z,73.33
2022-12-06T08:26:18.732Z,72.70
2022-12-06T08:28:46.697Z,71.89
2022-12-06T08:31:16.361Z,72.32
2022-12-06T08:33:45.605Z,72.18
2022-12-06T08:36:15.304Z,71.67
2022-12-06T08:38:43.460Z,71.29
2022-12-06T08:41:32.221Z,70.80
2022-12-06T08:44:01.276Z,71.00
2022-12-06T08:46:30.092Z,72.03
2022-12-06T08:48:59.299Z,72.88
2022-12-06T08:51:27.166Z,72.15
2022-12-06T08:53:55.879Z,71.21
2022-12-06T08:56:24.773Z,70.91
2022-12-06T08:58:53.901Z,71.81
2022-12-06T09:01:24.133Z,71.64
2022-12-06T09:03:52.013Z,70.86
2022-12-06T09:06:23.336Z,70.39
2022-12-06T09:08:51.451Z,70.17
2022-12-06T09:11:20.496Z,70.53
2022-12-06T09:13:48.270Z,70.22
2022-12-06T09:16:17.625Z,70.63
2022-12-06T09:18:46.593Z,70.98
2022-12-06T09:21:16.093Z,71.37
2022-12-06T09:23:45.501Z,70.99
2022-12-06T09:26:13.790Z,70.36
2022-12-06T09:28:43.390Z,69.74
2022-12-06T09:31:11.606Z,69.62
2022-12-06T09:33:39.719Z,69.65
2022-12-06T09:36:11.168Z,69.45
2022-12-06T09:38:40.533Z,70.20
2022-12-06T09:41:28.996Z,70.70
2022-12-06T09:44:06.509Z,70.20
2022-12-06T09:46:50.244Z,70.14
2022-12-06T09:49:29.884Z,69.34
2022-12-06T09:52:23.929Z,69.01
2022-12-06T09:55:01.111Z,68.91
2022-12-06T09:57:35.491Z,68.75
2022-12-06T10:00:11.365Z,69.67
2022-12-06T10:03:10.569Z,70.09
2022-12-06T10:05:48.080Z,69.40
2022-12-06T10:08:27.109Z,69.80
2022-12-06T10:10:59.291Z,69.84
2022-12-06T10:13:42.230Z,70.59
2022-12-06T10:16:15.360Z,70.55
2022-12-06T10:18:54.591Z,70.14
2022-12-06T10:21:29.117Z,69.33
2022-12-06T10:24:06.962Z,69.31
2022-12-06T10:26:40.347Z,69.11
2022-12-06T10:29:18.299Z,69.67
2022-12-06T10:31:55.387Z,70.17
2022-12-06T10:34:27.184Z,69.95
2022-12-06T10:37:00.181Z,69.63
2022-12-06T10:39:32.777Z,68.77
2022-12-06T10:42:03.593Z,69.31
2022-12-06T10:44:36.283Z,70.09
2022-12-06T10:47:07.094Z,69.56
2022-12-06T10:49:47.582Z,69.36
2022-12-06T10:52:21.717Z,69.85
2022-12-06T10:54:58.025Z,69.92
2022-12-06T10:57:31.302Z,69.00
2022-12-06T11:00:04.685Z,68.55
2022-12-06T11:02:39.765Z,69.06
2022-12-06T11:05:16.202Z,69.33
2022-12-06T11:07:46.762Z,69.77
2022-12-06T11:10:21.184Z,69.79
2022-12-06T11:12:50.368Z,69.48
2022-12-06T11:15:24.445Z,69.40
2022-12-06T11:18:00.858Z,69.33
2022-12-06T11:20:31.310Z,68.99
2022-12-06T11:23:07.157Z,68.25
2022-12-06T11:25:42.036Z,68.46
2022-12-06T11:28:21.767Z,68.56
2022-12-06T11:30:53.236Z,67.38
2022-12-06T11:33:23.203Z,67.22
2022-12-06T11:35:51.225Z,67.04
2022-12-06T11:38:19.213Z,67.01
2022-12-06T11:40:48.180Z,67.61
2022-12-06T11:43:18.721Z,67.37
2022-12-06T11:45:47.273Z,66.50
2022-12-06T11:48:18.085Z,66.37
2022-12-06T11:50:47.974Z,65.78
2022-12-06T11:53:25.217Z,65.89
2022-12-06T11:55:54.950Z,65.77
2022-12-06T11:58:28.052Z,64.81
2022-12-06T12:00:58.580Z,64.79
2022-12-06T12:03:32.933Z,64.08
2022-12-06T12:06:25.020Z,63.58
2022-12-06T12:08:56.810Z,64.19
2022-12-06T12:11:27.547Z,65.14
2022-12-06T12:13:57.556Z,66.11
2022-12-06T12:16:27.225Z,65.69
2022-12-06T12:19:01.845Z,65.13
2022-12-06T12:21:32.530Z,65.81
2022-12-06T12:24:00.562Z,65.56
2022-12-06T12:26:37.560Z,64.84
2022-12-06T12:29:13.726Z,65.67
2022-12-06T12:31:48.077Z,64.94
2022-12-06T12:34:21.450Z,64.84
2022-12-06T12:36:51.596Z,64.96
2022-12-06T12:39:30.195Z,64.92
2022-12-06T12:41:58.124Z,65.50
2022-12-06T12:44:37.580Z,65.87
2022-12-06T12:47:16.789Z,65.96
2022-12-06T12:50:01.013Z,65.34
2022-12-06T12:52:30.626Z,65.64
2022-12-06T12:55:04.235Z,65.24
2022-12-06T12:57:32.147Z,64.95
2022-12-06T12:59:59.897Z,65.20
2022-12-06T13:02:30.147Z,65.76
2022-12-06T13:05:32.718Z,66.11
2022-12-06T13:07:50.998Z,65.75
2022-12-06T13:10:22.375Z,64.57
2022-12-06T13:12:51.950Z,63.55
2022-12-06T13:15:22.318Z,63.76
2022-12-06T13:17:59.270Z,63.06
2022-12-06T13:20:31.689Z,64.22
2022-12-06T13:23:01.732Z,63.86
2022-12-06T13:25:29.649Z,63.74
2022-12-06T13:28:04.983Z,64.24
2022-12-06T13:30:35.331Z,64.20
2022-12-06T13:33:06.043Z,63.71
2022-12-06T13:35:38.556Z,62.65
2022-12-06T13:38:26.798Z,63.11
2022-12-06T13:40:55.403Z,62.81
2022-12-06T13:43:57.148Z,63.62
2022-12-06T13:46:30.237Z,63.95
2022-12-06T13:48:59.090Z,63.13
2022-12-06T13:51:45.933Z,61.72
2022-12-06T13:54:32.236Z,61.17
2022-12-06T13:57:01.325Z,59.97
2022-12-06T13:59:39.184Z,60.16
2022-12-06T14:02:53.069Z,60.13
2022-12-06T14:08:32.770Z,60.90
2022-12-06T14:11:15.872Z,60.94
2022-12-06T14:13:45.801Z,61.46
2022-12-06T14:16:19.972Z,60.91
2022-12-06T14:18:47.953Z,61.38
2022-12-06T14:21:22.360Z,62.21
2022-12-06T14:23:51.572Z,62.22
2022-12-06T14:26:24.953Z,62.48
2022-12-06T14:28:54.353Z,61.92
2022-12-06T14:31:25.654Z,62.05
2022-12-06T14:33:54.616Z,61.29
2022-12-06T14:36:25.926Z,62.49
2022-12-06T14:39:01.439Z,62.27
2022-12-06T14:41:52.284Z,63.13
2022-12-06T14:44:21.387Z,63.38
2022-12-06T14:46:50.257Z,62.88
2022-12-06T14:49:37.951Z,62.90
2022-12-06T14:52:18.521Z,63.00
2022-12-06T14:54:48.259Z,63.29
2022-12-06T14:57:26.859Z,63.16
2022-12-06T15:00:15.159Z,63.08
2022-12-06T15:03:01.030Z,62.76
2022-12-06T15:05:37.211Z,63.31
2022-12-06T15:08:30.166Z,63.73
2022-12-06T15:11:01.083Z,64.28
2022-12-06T15:13:29.222Z,65.08
2022-12-06T15:16:08.138Z,64.96
2022-12-06T15:18:38.256Z,65.12
2022-12-06T15:21:12.477Z,64.90
2022-12-06T15:23:43.008Z,65.17
2022-12-06T15:26:13.288Z,65.13
2022-12-06T15:28:41.244Z,64.45
2022-12-06T15:31:17.465Z,64.81
2022-12-06T15:33:46.019Z,65.18
2022-12-06T15:36:17.940Z,65.08
2022-12-06T15:38:46.562Z,65.49
2022-12-06T15:41:17.631Z,65.68
2022-12-06T15:43:46.032Z,65.40
2022-12-06T15:46:18.631Z,64.68
2022-12-06T15:48:46.571Z,64.72
2022-12-06T15:51:20.311Z,64.91
2022-12-06T15:53:49.824Z,65.91
2022-12-06T15:56:21.105Z,65.84
2022-12-06T15:58:49.367Z,65.67
2022-12-06T16:01:19.627Z,65.36
2022-12-06T16:03:47.693Z,65.45
2022-12-06T16:06:17.028Z,65.25
2022-12-06T16:08:45.642Z,64.98
2022-12-06T16:11:15.995Z,65.40
2022-12-06T16:13:45.600Z,65.58
2022-12-06T16:16:13.963Z,66.21
2022-12-06T16:18:41.852Z,66.39
2022-12-06T16:21:20.630Z,66.28
2022-12-06T16:24:13.068Z,66.51
2022-12-06T16:26:44.158Z,66.48
2022-12-06T16:29:14.840Z,66.51
2022-12-06T16:31:42.715Z,66.81
2022-12-06T16:34:11.020Z,66.52
2022-12-06T16:36:54.490Z,66.83
2022-12-06T16:39:22.784Z,68.19
2022-12-06T16:41:50.592Z,68.39
2022-12-06T16:44:19.901Z,68.36
2022-12-06T16:46:47.747Z,68.54
2022-12-06T16:52:06.806Z,69.63
2022-12-06T16:54:34.709Z,69.81
2022-12-06T16:57:02.654Z,69.35
2022-12-06T16:59:31.899Z,69.02
2022-12-06T17:02:00.392Z,69.06
2022-12-06T17:04:30.662Z,68.58
2022-12-06T17:06:58.591Z,68.29
2022-12-06T17:09:26.695Z,68.11
2022-12-06T17:12:06.022Z,68.06
2022-12-06T17:14:36.088Z,68.21
2022-12-06T17:17:04.416Z,68.08
2022-12-06T17:19:33.568Z,67.98
2022-12-06T17:22:02.298Z,68.36
2022-12-06T17:24:30.576Z,68.32
2022-12-06T17:26:58.983Z,68.65
2022-12-06T17:29:28.423Z,68.62
2022-12-06T17:31:58.059Z,68.41
2022-12-06T17:34:26.439Z,67.75
2022-12-06T17:36:55.057Z,68.36
2022-12-06T17:39:22.946Z,68.70
2022-12-06T17:42:08.063Z,68.96
2022-12-06T17:44:36.106Z,68.77
2022-12-06T17:47:05.669Z,68.87
2022-12-06T17:49:35.833Z,69.93
2022-12-06T17:52:03.775Z,69.94
2022-12-06T17:54:31.699Z,69.98
2022-12-06T17:56:59.567Z,69.37
2022-12-06T17:59:30.267Z,68.61
2022-12-06T18:02:16.431Z,68.93
2022-12-06T18:04:47.313Z,69.68
2022-12-06T18:07:15.734Z,70.44
2022-12-06T18:09:43.557Z,70.01
2022-12-06T18:12:12.854Z,69.34
2022-12-06T18:14:40.747Z,68.98
2022-12-06T18:17:08.795Z,69.50
2022-12-06T18:19:36.716Z,69.63
2022-12-06T18:22:05.843Z,70.66
2022-12-06T18:24:35.856Z,70.89
2022-12-06T18:27:04.931Z,70.22
2022-12-06T18:29:32.980Z,70.41
2022-12-06T18:32:00.834Z,70.07
2022-12-06T18:34:28.662Z,69.93
2022-12-06T18:36:56.463Z,69.31
2022-12-06T18:39:25.617Z,68.70
2022-12-06T18:41:54.118Z,69.11
2022-12-06T18:44:22.035Z,68.96
2022-12-06T18:46:49.833Z,69.34
2022-12-06T18:49:17.742Z,69.07
2022-12-06T18:51:45.607Z,69.45
2022-12-06T18:54:14.628Z,70.75
2022-12-06T18:56:43.834Z,71.13
2022-12-06T18:59:12.890Z,71.30
2022-12-06T19:01:41.852Z,70.00
2022-12-06T19:04:13.116Z,69.78
2022-12-06T19:06:41.199Z,69.25
2022-12-06T19:09:10.461Z,69.10
2022-12-06T19:11:38.825Z,70.29
2022-12-06T19:14:08.189Z,70.14
2022-12-06T19:16:37.774Z,69.18
2022-12-06T19:19:11.438Z,68.47
2022-12-06T19:21:43.746Z,68.35
2022-12-06T19:24:12.653Z,68.30
2022-12-06T19:26:40.508Z,69.43
2022-12-06T19:29:10.755Z,69.92
2022-12-06T19:31:38.728Z,69.84
2022-12-06T19:34:06.723Z,69.48
2022-12-06T19:36:34.511Z,69.57
2022-12-06T19:39:04.306Z,69.80
2022-12-06T19:41:32.115Z,70.55
2022-12-06T19:44:17.116Z,69.76
2022-12-06T19:46:47.447Z,70.44
2022-12-06T19:49:17.582Z,71.23
2022-12-06T19:51:46.720Z,71.80
2022-12-06T19:54:16.606Z,72.58
2022-12-06T19:56:44.368Z,72.08
2022-12-06T19:59:12.546Z,72.52
2022-12-06T20:01:41.754Z,73.21
2022-12-06T20:04:14.828Z,73.61
2022-12-06T20:06:42.666Z,72.88
2022-12-06T20:09:10.429Z,72.56
2022-12-06T20:11:56.606Z,71.48
2022-12-06T20:14:24.660Z,71.97
2022-12-06T20:16:52.684Z,71.90
2022-12-06T20:19:22.296Z,71.60
2022-12-06T20:21:50.499Z,71.93
2022-12-06T20:24:19.932Z,71.87
2022-12-06T20:26:49.228Z,70.99
2022-12-06T20:29:17.880Z,71.18
2022-12-06T20:31:46.004Z,71.70
2022-12-06T20:34:15.696Z,71.91
2022-12-06T20:36:45.279Z,71.53
2022-12-06T20:39:20.831Z,71.49
2022-12-06T20:41:49.438Z,71.88
2022-12-06T20:44:17.741Z,71.88
2022-12-06T20:46:45.671Z,73.10
2022-12-06T20:49:14.043Z,72.57
2022-12-06T20:51:42.470Z,72.73
2022-12-06T20:54:12.805Z,73.85
2022-12-06T20:56:42.401Z,72.99
2022-12-06T20:59:10.925Z,74.71
2022-12-06T21:01:40.548Z,75.40
2022-12-06T21:04:09.268Z,75.25
2022-12-06T21:06:37.105Z,75.00
2022-12-06T21:09:05.048Z,75.58
2022-12-06T21:11:34.287Z,75.54
2022-12-06T21:14:03.301Z,75.69
2022-12-06T21:16:32.087Z,74.86
2022-12-06T21:19:01.674Z,75.23
2022-12-06T21:21:32.276Z,75.32
2022-12-06T21:24:00.579Z,75.34
2022-12-06T21:26:28.995Z,75.14
2022-12-06T21:28:58.137Z,75.47
2022-12-06T21:31:27.897Z,74.98
2022-12-06T21:33:56.079Z,74.59
2022-12-06T21:36:24.391Z,74.67
2022-12-06T21:38:52.332Z,74.28
2022-12-06T21:41:20.173Z,74.35
2022-12-06T21:43:48.203Z,74.35
2022-12-06T21:46:20.066Z,74.13
2022-12-06T21:48:51.339Z,74.54
2022-12-06T21:51:19.532Z,75.12
2022-12-06T21:53:47.277Z,75.37
2022-12-06T21:56:17.147Z,76.51
2022-12-06T21:58:45.000Z,76.08
2022-12-06T22:01:15.305Z,76.48
2022-12-06T22:03:44.727Z,75.65
2022-12-06T22:06:13.712Z,76.00
2022-12-06T22:08:43.083Z,75.94
2022-12-06T22:11:12.430Z,76.23
2022-12-06T22:13:40.300Z,75.03
2022-12-06T22:16:10.441Z,76.17
2022-12-06T22:18:44.778Z,76.64
2022-12-06T22:21:17.170Z,76.11
2022-12-06T22:23:45.156Z,75.41
2022-12-06T22:26:15.544Z,75.68
2022-12-06T22:28:43.743Z,77.72
2022-12-06T22:31:12.949Z,78.32
2022-12-06T22:33:40.868Z,78.27
2022-12-06T22:36:09.910Z,77.31
2022-12-06T22:38:39.057Z,77.43
2022-12-06T22:41:07.618Z,78.38
2022-12-06T22:43:36.188Z,79.08
2022-12-06T22:46:05.177Z,79.01
2022-12-06T22:48:33.164Z,79.05
2022-12-06T22:51:11.796Z,78.88
2022-12-06T22:53:41.661Z,77.90
2022-12-06T22:56:09.762Z,76.91
2022-12-06T22:58:37.729Z,76.78
2022-12-06T23:01:16.537Z,78.36
2022-12-06T23:03:45.180Z,77.84
2022-12-06T23:06:13.678Z,78.38
2022-12-06T23:08:43.197Z,78.49
2022-12-06T23:11:14.333Z,77.66
2022-12-06T23:13:42.251Z,77.26
2022-12-06T23:16:12.322Z,77.60
2022-12-06T23:18:40.308Z,77.58
2022-12-06T23:21:11.449Z,77.75
2022-12-06T23:23:39.842Z,78.15
2022-12-06T23:26:11.120Z,77.42
2022-12-06T23:28:39.399Z,78.22
2022-12-06T23:31:11.057Z,78.09
2022-12-06T23:33:38.960Z,76.91
2022-12-06T23:36:09.315Z,75.70
2022-12-06T23:38:37.607Z,76.38
2022-12-06T23:41:06.783Z,75.84
2022-12-06T23:43:36.459Z,75.34
2022-12-06T23:46:07.717Z,74.35
2022-12-06T23:48:36.077Z,73.73
2022-12-06T23:51:05.673Z,73.11
2022-12-06T23:53:33.984Z,72.68
2022-12-06T23:56:03.078Z,73.54
2022-12-06T23:58:31.082Z,74.32
